Time;durP1;ratioP1;P1;durP2;ratioP2;P2;SDS_P1;SDS_P2;PMS_P1;PMS_P2;Temp;Humidity;BMP_temperature;BMP_pressure;BME280_temperature;BME280_humidity;BME280_pressure;Samples;Min_cycle;Max_cycle;Signal;HPM_P1;HPM_P2
2023/02/06 00:00:52;;;;;;;19.15;11.43;;;;;;;-1.42;75.51;103172.91;5006874;28;20049;-60
2023/02/06 00:03:19;;;;;;;16.95;10.50;;;;;;;-1.47;76.22;103164.13;5007312;28;20065;-59
2023/02/06 00:05:57;;;;;;;14.20;9.98;;;;;;;-1.49;76.55;103158.03;5005276;28;20461;-63
2023/02/06 00:08:25;;;;;;;16.30;10.68;;;;;;;-1.48;76.90;103162.41;5004820;28;20682;-58
2023/02/06 00:10:53;;;;;;;22.95;10.45;;;;;;;-1.47;76.94;103161.56;4997582;28;20469;-60
2023/02/06 00:13:21;;;;;;;17.77;10.10;;;;;;;-1.48;77.07;103165.84;5007098;28;20132;-61
2023/02/06 00:15:48;;;;;;;17.65;10.68;;;;;;;-1.47;76.36;103174.47;5006353;28;20510;-56
2023/02/06 00:18:15;;;;;;;22.55;11.32;;;;;;;-1.47;76.83;103177.94;5004936;28;20054;-61
2023/02/06 00:20:42;;;;;;;21.67;10.75;;;;;;;-1.49;76.68;103184.75;5019867;28;20134;-60
2023/02/06 00:23:10;;;;;;;15.80;10.55;;;;;;;-1.48;76.67;103191.69;5019237;28;20148;-62
2023/02/06 00:25:37;;;;;;;18.00;10.30;;;;;;;-1.48;76.48;103195.97;5005036;28;20421;-60
2023/02/06 00:28:04;;;;;;;18.15;10.43;;;;;;;-1.49;76.74;103189.03;5007866;28;20415;-61
2023/02/06 00:30:31;;;;;;;17.08;10.90;;;;;;;-1.54;77.15;103182.00;5001553;28;20169;-61
2023/02/06 00:32:59;;;;;;;18.98;11.35;;;;;;;-1.60;76.99;103187.00;5009678;28;20058;-61
2023/02/06 00:35:26;;;;;;;16.98;9.75;;;;;;;-1.57;76.71;103201.72;5007384;28;20084;-62
2023/02/06 00:37:53;;;;;;;16.45;10.65;;;;;;;-1.57;76.59;103194.84;5015803;28;20136;-62
2023/02/06 00:40:20;;;;;;;17.20;10.23;;;;;;;-1.58;76.39;103182.75;5008817;28;20088;-60
2023/02/06 00:42:47;;;;;;;16.50;10.45;;;;;;;-1.58;76.80;103190.47;5007498;28;20140;-61
2023/02/06 00:45:14;;;;;;;17.25;10.65;;;;;;;-1.59;77.33;103193.91;5004240;28;20060;-62
2023/02/06 00:47:42;;;;;;;17.42;10.43;;;;;;;-1.58;77.04;103195.66;5000029;28;20052;-61
2023/02/06 00:50:09;;;;;;;20.85;12.07;;;;;;;-1.55;77.26;103200.94;5003402;28;20463;-64
2023/02/06 00:52:36;;;;;;;20.50;11.77;;;;;;;-1.54;77.16;103191.47;5005500;28;20214;-60
2023/02/06 00:55:04;;;;;;;19.38;11.85;;;;;;;-1.60;77.02;103199.91;5008038;28;20061;-60
2023/02/06 00:57:31;;;;;;;21.75;12.70;;;;;;;-1.61;77.64;103197.28;5004960;28;20144;-61
2023/02/06 00:59:58;;;;;;;22.90;12.50;;;;;;;-1.68;77.29;103183.28;5003483;28;20376;-62
2023/02/06 01:02:25;;;;;;;20.65;11.50;;;;;;;-1.72;77.81;103185.72;5004440;28;20144;-59
2023/02/06 01:04:53;;;;;;;19.88;11.63;;;;;;;-1.71;78.01;103188.38;5008074;28;20137;-61
2023/02/06 01:07:20;;;;;;;21.95;11.32;;;;;;;-1.68;77.94;103185.00;5006548;28;20077;-61
2023/02/06 01:09:47;;;;;;;18.35;10.85;;;;;;;-1.67;77.99;103182.44;5006180;28;20101;-61
2023/02/06 01:12:14;;;;;;;18.55;11.32;;;;;;;-1.64;77.60;103174.81;5008252;28;20081;-60
2023/02/06 01:14:42;;;;;;;24.10;11.95;;;;;;;-1.61;77.36;103174.03;5007579;28;20536;-62
2023/02/06 01:17:09;;;;;;;24.85;12.30;;;;;;;-1.60;77.63;103175.78;5006828;28;20534;-62
2023/02/06 01:19:37;;;;;;;21.27;11.57;;;;;;;-1.61;77.90;103177.50;4998198;28;20422;-65
2023/02/06 01:22:04;;;;;;;22.30;12.18;;;;;;;-1.60;77.99;103199.03;5004176;28;20498;-62
2023/02/06 01:24:32;;;;;;;19.35;10.70;;;;;;;-1.61;77.93;103192.13;5007369;28;20053;-59
2023/02/06 01:26:59;;;;;;;21.73;11.98;;;;;;;-1.62;77.95;103192.91;5006985;28;20572;-59
2023/02/06 01:29:26;;;;;;;20.08;12.05;;;;;;;-1.61;78.25;103197.28;5005771;28;20081;-62
2023/02/06 01:31:53;;;;;;;20.48;12.18;;;;;;;-1.65;78.16;103192.84;5007779;28;20144;-61
2023/02/06 01:34:20;;;;;;;19.25;11.60;;;;;;;-1.71;78.04;103187.47;5006824;28;20061;-62
2023/02/06 01:36:48;;;;;;;19.63;11.52;;;;;;;-1.71;78.21;103178.03;5022309;28;20117;-61
2023/02/06 01:39:15;;;;;;;20.55;11.55;;;;;;;-1.71;78.73;103183.19;5009207;28;20081;-62
2023/02/06 01:41:42;;;;;;;20.70;11.30;;;;;;;-1.71;78.64;103174.53;4996334;28;20535;-64
2023/02/06 01:44:22;;;;;;;18.33;10.90;;;;;;;-1.72;78.51;103157.31;5005160;28;20149;-61
2023/02/06 01:46:52;;;;;;;19.08;10.90;;;;;;;-1.71;79.09;103156.47;5006685;28;20085;-62
2023/02/06 01:49:43;;;;;;;24.83;12.80;;;;;;;-1.71;78.58;103152.22;5003040;28;20062;-63
2023/02/06 01:52:17;;;;;;;22.52;11.68;;;;;;;-1.75;78.54;103140.03;5003027;28;20237;-61
2023/02/06 01:54:48;;;;;;;18.60;10.60;;;;;;;-1.76;78.94;103134.78;5003534;28;20050;-59
2023/02/06 01:57:15;;;;;;;19.27;10.80;;;;;;;-1.76;78.74;103137.38;5014023;28;20468;-63
2023/02/06 01:59:46;;;;;;;19.83;11.13;;;;;;;-1.80;78.24;103146.75;4994704;28;20502;-62
2023/02/06 02:03:04;;;;;;;18.25;10.70;;;;;;;-1.97;78.38;103138.44;5003168;28;20179;-62
2023/02/06 02:05:32;;;;;;;20.15;10.25;;;;;;;-2.00;78.83;103133.16;5006285;28;20045;-62
2023/02/06 02:08:11;;;;;;;15.43;9.32;;;;;;;-1.95;78.98;103120.41;5001848;28;20054;-62
2023/02/06 02:10:38;;;;;;;14.77;9.13;;;;;;;-1.94;79.14;103123.03;5006704;28;20050;-63
2023/02/06 02:13:05;;;;;;;14.13;9.05;;;;;;;-1.90;78.93;103126.59;5003961;28;20066;-62
2023/02/06 02:15:55;;;;;;;15.68;9.57;;;;;;;-1.84;79.31;103124.25;5009675;28;20219;-63
2023/02/06 02:18:40;;;;;;;15.38;8.57;;;;;;;-1.86;79.26;103116.41;5001780;28;20129;-61
2023/02/06 02:21:32;;;;;;;18.38;9.10;;;;;;;-1.85;78.85;103101.81;5005421;28;20068;-61
2023/02/06 02:24:20;;;;;;;17.90;9.50;;;;;;;-1.90;78.30;103106.81;5000088;28;20161;-61
2023/02/06 02:27:17;;;;;;;17.13;10.02;;;;;;;-1.97;78.44;103098.84;5001315;28;20137;-62
2023/02/06 02:30:24;;;;;;;14.40;9.18;;;;;;;-1.98;78.64;103097.97;5006292;28;20138;-60
2023/02/06 02:33:10;;;;;;;14.57;9.20;;;;;;;-1.97;78.84;103094.56;4965213;28;20054;-60
2023/02/06 02:35:54;;;;;;;17.85;9.93;;;;;;;-1.98;78.84;103095.41;5005129;28;20548;-61
2023/02/06 02:38:32;;;;;;;16.08;8.95;;;;;;;-1.97;78.66;103091.09;5006710;28;20053;-62
2023/02/06 02:41:09;;;;;;;18.63;9.73;;;;;;;-1.95;78.88;103092.03;5004772;28;20068;-62
2023/02/06 02:43:43;;;;;;;17.48;9.40;;;;;;;-1.96;78.62;103085.09;4995414;28;20046;-62
2023/02/06 02:46:23;;;;;;;18.88;11.30;;;;;;;-1.94;78.76;103093.75;5001327;28;20062;-61
2023/02/06 02:48:53;;;;;;;19.25;11.35;;;;;;;-1.89;78.56;103087.94;5004809;28;20049;-62
2023/02/06 02:51:20;;;;;;;16.95;10.00;;;;;;;-1.85;78.80;103087.19;5005489;28;20116;-61
2023/02/06 02:53:47;;;;;;;14.75;8.93;;;;;;;-1.88;78.01;103081.94;5002625;28;20217;-62
2023/02/06 02:56:21;;;;;;;16.58;9.40;;;;;;;-1.91;77.97;103079.25;5003671;28;20077;-62
2023/02/06 02:58:53;;;;;;;17.38;9.40;;;;;;;-2.02;77.78;103074.59;5003330;28;20123;-61
2023/02/06 03:01:27;;;;;;;14.27;8.95;;;;;;;-2.03;78.16;103078.84;5008536;28;20161;-60
2023/02/06 03:03:55;;;;;;;17.33;9.23;;;;;;;-2.12;77.54;103073.41;5015093;28;20166;-60
2023/02/06 03:06:50;;;;;;;14.43;7.75;;;;;;;-2.16;77.91;103069.88;5010214;28;20041;-62
2023/02/06 03:09:32;;;;;;;13.68;9.27;;;;;;;-2.06;78.28;103068.44;5009678;28;20551;-60
2023/02/06 03:12:22;;;;;;;15.23;9.55;;;;;;;-2.20;77.44;103074.88;5009180;28;20073;-63
2023/02/06 03:15:34;;;;;;;14.25;8.95;;;;;;;-2.22;78.40;103092.88;5008213;28;20054;-63
2023/02/06 03:18:10;;;;;;;13.27;8.85;;;;;;;-2.15;78.43;103101.72;5004795;28;20136;-62
2023/02/06 03:20:39;;;;;;;;;;;;;;;-2.19;78.19;103092.97;5007248;28;20053;-61
2023/02/06 03:23:07;;;;;;;16.30;9.07;;;;;;;-2.19;77.58;103097.25;5025282;28;19952;-62
2023/02/06 03:25:38;;;;;;;15.18;8.73;;;;;;;-2.17;78.20;103104.22;5008741;28;20264;-62
2023/02/06 03:28:11;;;;;;;17.13;8.65;;;;;;;-2.10;78.58;103093.28;5005804;28;20050;-62
2023/02/06 03:30:41;;;;;;;15.18;8.18;;;;;;;-2.02;78.54;103087.50;5015585;28;20144;-61
2023/02/06 03:33:10;;;;;;;13.18;8.55;;;;;;;-2.00;78.68;103080.66;5006848;28;20070;-63
2023/02/06 03:35:38;;;;;;;15.88;9.38;;;;;;;-2.01;78.47;103069.47;5005197;28;20725;-62
2023/02/06 03:38:06;;;;;;;13.60;8.25;;;;;;;-1.99;78.29;103062.63;5008518;28;20301;-64
2023/02/06 03:40:34;;;;;;;12.70;8.32;;;;;;;-1.98;78.16;103066.09;5001672;28;20137;-60
2023/02/06 03:43:02;;;;;;;12.73;7.60;;;;;;;-2.00;77.68;103062.59;5002277;28;21142;-63
2023/02/06 03:45:44;;;;;;;16.83;9.10;;;;;;;-2.05;77.14;103065.03;5003908;28;20046;-63
2023/02/06 03:48:21;;;;;;;11.80;7.70;;;;;;;-2.11;77.16;103057.97;5009723;28;20507;-61
2023/02/06 03:50:51;;;;;;;10.48;6.95;;;;;;;-2.06;77.47;103068.44;5013246;28;20050;-61
2023/02/06 03:53:21;;;;;;;14.13;7.80;;;;;;;-2.05;76.98;103081.41;5005914;28;20109;-62
2023/02/06 03:55:53;;;;;;;14.50;7.57;;;;;;;-2.13;75.93;103082.84;5008366;28;20061;-64
2023/02/06 03:58:20;;;;;;;17.25;8.25;;;;;;;-2.09;76.69;103091.56;5007996;28;20050;-61
2023/02/06 04:00:50;;;;;;;11.48;7.03;;;;;;;-2.07;77.19;103090.81;5006226;28;20046;-62
2023/02/06 04:03:18;;;;;;;14.18;8.25;;;;;;;-2.06;76.89;103086.53;5002116;28;20136;-61
2023/02/06 04:05:46;;;;;;;13.32;7.20;;;;;;;-2.12;76.50;103088.88;5006673;28;20088;-62
2023/02/06 04:08:13;;;;;;;12.18;7.40;;;;;;;-2.05;77.05;103083.97;4999931;28;20104;-61
2023/02/06 04:10:40;;;;;;;12.85;7.80;;;;;;;-1.98;77.01;103079.00;5005431;28;20145;-63
2023/02/06 04:13:07;;;;;;;13.32;7.40;;;;;;;-1.96;77.08;103083.41;5006735;28;20506;-62
2023/02/06 04:15:34;;;;;;;12.27;7.05;;;;;;;-1.95;76.44;103089.44;4996046;28;20050;-63
2023/02/06 04:18:02;;;;;;;14.45;7.40;;;;;;;-2.01;76.21;103086.66;4997220;28;20140;-64
2023/02/06 04:20:32;;;;;;;12.02;7.00;;;;;;;-2.01;76.62;103077.22;4998233;28;20053;-62
2023/02/06 04:22:59;;;;;;;12.40;6.82;;;;;;;-1.94;76.85;103080.84;4970238;28;20556;-62
2023/02/06 04:25:26;;;;;;;13.02;6.97;;;;;;;-1.92;76.84;103068.91;4995640;28;20052;-63
2023/02/06 04:27:54;;;;;;;13.63;6.78;;;;;;;-1.84;77.12;103057.09;5007676;28;20107;-62
2023/02/06 04:30:21;;;;;;;12.02;7.90;;;;;;;-1.77;76.91;103058.16;5006335;28;20054;-62
2023/02/06 04:32:48;;;;;;;12.40;6.85;;;;;;;-1.73;76.77;103047.09;5004188;28;20141;-64
2023/02/06 04:35:15;;;;;;;12.57;7.20;;;;;;;-1.73;76.24;103032.47;5006884;28;20283;-61
2023/02/06 04:37:43;;;;;;;10.85;6.57;;;;;;;-1.63;76.10;103039.66;5004704;28;20133;-61
2023/02/06 04:40:10;;;;;;;14.50;7.68;;;;;;;-1.68;75.76;103054.16;5022993;28;20627;-63
2023/02/06 04:42:37;;;;;;;12.77;7.30;;;;;;;-1.73;76.51;103045.38;5005681;28;20069;-61
2023/02/06 04:45:05;;;;;;;12.38;8.05;;;;;;;-1.78;76.51;103039.22;4991988;28;20146;-62
2023/02/06 04:47:32;;;;;;;10.00;6.80;;;;;;;-1.85;76.74;103045.00;5001509;28;20065;-63
2023/02/06 04:49:59;;;;;;;11.82;6.88;;;;;;;-1.82;76.96;103030.50;5001323;28;20207;-62
2023/02/06 04:52:27;;;;;;;11.77;6.47;;;;;;;-1.91;77.39;103039.66;4993161;28;20133;-62
2023/02/06 04:54:54;;;;;;;10.82;6.05;;;;;;;-1.89;77.93;103043.16;5008051;28;20153;-62
2023/02/06 04:57:22;;;;;;;10.50;6.60;;;;;;;-1.82;78.68;103042.53;5004748;28;20141;-63
2023/02/06 04:59:49;;;;;;;11.07;6.78;;;;;;;-1.83;78.97;103039.06;5001796;28;20919;-61
2023/02/06 05:02:16;;;;;;;10.80;6.95;;;;;;;-1.85;79.16;103047.59;5007056;28;20054;-62
2023/02/06 05:04:44;;;;;;;9.95;6.32;;;;;;;-1.87;79.89;103037.22;5002414;28;20057;-60
2023/02/06 05:07:11;;;;;;;12.93;6.32;;;;;;;-1.85;79.67;103027.81;5001910;28;20052;-63
2023/02/06 05:09:38;;;;;;;14.32;6.88;;;;;;;-1.83;80.35;103033.91;5003985;28;20082;-62
2023/02/06 05:12:05;;;;;;;11.88;6.60;;;;;;;-1.84;80.61;103041.63;5006725;28;20596;-61
2023/02/06 05:14:32;;;;;;;10.02;7.00;;;;;;;-1.84;81.04;103042.50;5007079;28;20575;-60
2023/02/06 05:17:00;;;;;;;10.55;6.68;;;;;;;-1.87;83.64;103047.53;5004777;28;20107;-61
2023/02/06 05:19:27;;;;;;;12.35;6.88;;;;;;;-1.93;85.09;103038.75;5006460;28;20145;-64
2023/02/06 05:21:54;;;;;;;10.98;6.10;;;;;;;-1.93;84.26;103038.75;4999497;28;20161;-62
2023/02/06 05:24:21;;;;;;;13.55;7.65;;;;;;;-1.86;84.14;103032.94;5006463;28;20483;-63
2023/02/06 05:26:48;;;;;;;11.25;6.88;;;;;;;-1.84;84.60;103033.88;4997058;28;20060;-63
2023/02/06 05:29:16;;;;;;;11.63;7.15;;;;;;;-1.76;83.83;103039.25;4992903;28;20065;-61
2023/02/06 05:31:43;;;;;;;13.63;7.80;;;;;;;-1.75;83.88;103029.00;4996211;28;20096;-63
2023/02/06 05:34:10;;;;;;;10.80;6.32;;;;;;;-1.73;83.70;103029.91;4995516;28;20054;-62
2023/02/06 05:36:37;;;;;;;10.18;6.63;;;;;;;-1.71;84.07;103025.66;4991865;28;20072;-59
2023/02/06 05:39:05;;;;;;;11.18;6.95;;;;;;;-1.69;84.36;103024.00;5000985;28;20045;-61
2023/02/06 05:41:32;;;;;;;10.73;7.35;;;;;;;-1.68;84.48;103025.75;4995416;28;20068;-62
2023/02/06 05:43:59;;;;;;;10.00;6.88;;;;;;;-1.66;84.30;103021.50;5001784;28;20058;-60
2023/02/06 05:46:26;;;;;;;9.70;6.13;;;;;;;-1.61;84.29;103021.66;4999746;28;20058;-61
2023/02/06 05:48:53;;;;;;;13.05;7.65;;;;;;;-1.56;84.29;103026.13;5004162;28;20064;-64
2023/02/06 05:51:21;;;;;;;10.88;6.50;;;;;;;-1.51;83.95;103036.59;5006422;28;20177;-63
2023/02/06 05:53:48;;;;;;;11.80;6.82;;;;;;;-1.48;83.63;103039.25;5007475;28;20177;-63
2023/02/06 05:56:15;;;;;;;12.90;7.47;;;;;;;-1.47;83.92;103034.97;5005112;28;20857;-63
2023/02/06 05:58:42;;;;;;;11.43;7.20;;;;;;;-1.40;83.70;103039.47;4988282;28;20117;-63
2023/02/06 06:01:11;;;;;;;10.57;6.63;;;;;;;-1.34;83.59;103048.28;4991789;28;20441;-61
2023/02/06 06:03:39;;;;;;;13.20;6.82;;;;;;;-1.34;83.83;103048.28;4988266;28;20078;-62
2023/02/06 06:06:07;;;;;;;10.93;7.20;;;;;;;-1.33;83.51;103055.19;4989667;28;20511;-62
2023/02/06 06:08:34;;;;;;;11.10;7.07;;;;;;;-1.32;83.53;103062.13;4996140;28;20153;-63
2023/02/06 06:11:02;;;;;;;12.32;7.25;;;;;;;-1.26;83.70;103061.44;4998076;28;20518;-63
2023/02/06 06:13:29;;;;;;;13.82;7.15;;;;;;;-1.25;83.39;103065.78;5000001;28;20057;-62
2023/02/06 06:15:56;;;;;;;15.02;7.55;;;;;;;-1.22;83.47;103070.13;4989457;28;20601;-61
2023/02/06 06:18:23;;;;;;;11.65;8.00;;;;;;;-1.26;83.68;103071.78;4997968;28;20602;-64
2023/02/06 06:20:52;;;;;;;17.92;8.35;;;;;;;-1.25;83.78;103080.41;5005914;28;20046;-61
2023/02/06 06:23:19;;;;;;;12.82;7.45;;;;;;;-1.24;84.05;103074.41;5006722;28;20048;-63
2023/02/06 06:25:46;;;;;;;13.68;7.93;;;;;;;-1.20;83.99;103071.94;4998363;28;20196;-61
2023/02/06 06:28:14;;;;;;;13.00;7.75;;;;;;;-1.19;84.26;103077.97;5005995;28;20050;-64
2023/02/06 06:30:41;;;;;;;11.35;7.15;;;;;;;-1.19;84.42;103083.16;5004092;28;20135;-63
2023/02/06 06:33:08;;;;;;;16.02;8.68;;;;;;;-1.19;84.47;103075.41;4995265;28;20060;-64
2023/02/06 06:35:36;;;;;;;13.40;8.13;;;;;;;-1.18;84.47;103080.59;5006890;28;20045;-62
2023/02/06 06:38:03;;;;;;;13.32;7.60;;;;;;;-1.17;84.69;103072.03;5028976;22;20061;-60
2023/02/06 06:40:31;;;;;;;12.10;7.97;;;;;;;-1.12;84.63;103073.03;5002633;28;20057;-60
2023/02/06 06:42:58;;;;;;;14.50;8.48;;;;;;;-1.22;85.83;103070.13;4997530;28;20142;-62
2023/02/06 06:45:25;;;;;;;12.70;8.13;;;;;;;-1.25;85.62;103072.66;4995132;28;20539;-61
2023/02/06 06:47:52;;;;;;;15.30;8.52;;;;;;;-1.20;85.76;103077.13;4987846;28;20050;-62
2023/02/06 06:50:19;;;;;;;11.30;8.38;;;;;;;-1.18;85.67;103062.50;4988412;28;20057;-60
2023/02/06 06:52:46;;;;;;;13.63;7.70;;;;;;;-1.11;85.77;103061.88;4996503;28;21535;-61
2023/02/06 06:55:14;;;;;;;12.60;8.07;;;;;;;-1.06;85.67;103059.41;4996210;28;20056;-62
2023/02/06 06:57:41;;;;;;;12.88;7.15;;;;;;;-1.02;85.01;103059.53;4989427;28;20353;-60
2023/02/06 07:00:09;;;;;;;14.25;8.32;;;;;;;-1.02;85.25;103058.66;4989469;28;20066;-61
2023/02/06 07:02:36;;;;;;;14.40;8.65;;;;;;;-0.99;85.44;103058.75;4999159;28;20730;-62
2023/02/06 07:05:04;;;;;;;17.73;9.90;;;;;;;-1.04;85.80;103048.28;4997791;28;20053;-60
2023/02/06 07:07:31;;;;;;;13.45;8.95;;;;;;;-1.08;86.42;103056.78;5001175;28;20061;-61
2023/02/06 07:09:59;;;;;;;12.00;8.25;;;;;;;-1.02;86.28;103056.94;4991533;28;20058;-62
2023/02/06 07:12:27;;;;;;;13.52;8.27;;;;;;;-1.02;86.49;103050.91;4994032;28;20786;-60
2023/02/06 07:14:54;;;;;;;15.10;9.52;;;;;;;-1.03;86.90;103055.22;4998650;28;20153;-61
2023/02/06 07:17:21;;;;;;;13.00;9.02;;;;;;;-1.03;87.16;103055.22;4996010;28;20157;-61
2023/02/06 07:19:51;;;;;;;17.85;10.15;;;;;;;-1.02;86.88;103054.38;4999814;28;20046;-61
2023/02/06 07:22:19;;;;;;;14.55;10.23;;;;;;;-1.00;86.91;103053.53;4996751;28;20108;-60
2023/02/06 07:24:46;;;;;;;12.73;9.27;;;;;;;-1.03;87.51;103050.03;4999009;28;20132;-62
2023/02/06 07:27:13;;;;;;;18.30;10.40;;;;;;;-1.05;87.76;103054.28;4998662;28;20053;-62
2023/02/06 07:29:40;;;;;;;16.92;10.25;;;;;;;-1.08;88.78;103066.22;4999083;28;20054;-61
2023/02/06 07:32:08;;;;;;;17.20;10.05;;;;;;;-1.04;88.59;103065.47;4996525;28;20050;-59
2023/02/06 07:34:35;;;;;;;17.40;10.80;;;;;;;-0.98;88.25;103075.16;4999757;28;20161;-61
2023/02/06 07:37:03;;;;;;;13.60;9.88;;;;;;;-0.94;88.16;103062.34;4996694;28;20056;-61
2023/02/06 07:39:30;;;;;;;17.05;10.23;;;;;;;-0.89;88.56;103057.28;4997035;28;20046;-61
2023/02/06 07:41:58;;;;;;;17.38;11.18;;;;;;;-0.88;89.33;103053.88;4997460;28;20149;-59
2023/02/06 07:44:25;;;;;;;16.92;10.82;;;;;;;-0.83;90.00;103049.69;4998660;28;20525;-60
2023/02/06 07:46:52;;;;;;;19.45;11.98;;;;;;;-0.94;91.37;103051.13;4999630;28;20156;-60
2023/02/06 07:49:19;;;;;;;16.38;11.07;;;;;;;-1.00;92.67;103056.97;4999691;28;20057;-61
2023/02/06 07:51:46;;;;;;;22.58;13.68;;;;;;;-1.02;93.67;103059.53;5000256;28;20107;-61
2023/02/06 07:54:14;;;;;;;22.90;13.57;;;;;;;-1.04;94.25;103052.56;4997727;28;20046;-60
2023/02/06 07:56:41;;;;;;;19.17;12.98;;;;;;;-0.99;94.78;103039.75;4995538;28;20610;-60
2023/02/06 07:59:08;;;;;;;22.92;14.60;;;;;;;-1.05;96.21;103046.50;4997196;28;20054;-60
2023/02/06 08:01:35;;;;;;;21.95;14.48;;;;;;;-1.05;96.71;103055.97;4997212;28;20137;-62
2023/02/06 08:04:03;;;;;;;26.88;14.10;;;;;;;-1.04;97.10;103048.28;4996342;28;20438;-61
2023/02/06 08:06:30;;;;;;;21.15;13.90;;;;;;;-1.02;97.23;103050.91;4998235;28;20136;-60
2023/02/06 08:08:57;;;;;;;18.75;13.65;;;;;;;-0.99;96.93;103057.84;5000839;28;20145;-62
2023/02/06 08:11:26;;;;;;;18.08;12.18;;;;;;;-0.90;96.60;103065.88;5018663;28;20054;-61
2023/02/06 08:13:53;;;;;;;14.52;11.52;;;;;;;-0.80;95.36;103063.59;5000017;28;20061;-61
2023/02/06 08:16:22;;;;;;;20.30;12.85;;;;;;;-0.70;94.74;103062.13;5005503;28;20629;-61
2023/02/06 08:18:49;;;;;;;20.73;12.00;;;;;;;-0.60;94.38;103065.81;5008132;28;20145;-60
2023/02/06 08:21:21;;;;;;;18.15;13.35;;;;;;;-0.56;94.30;103055.59;5005009;28;20417;-60
2023/02/06 08:23:59;;;;;;;20.75;12.00;;;;;;;-0.47;93.87;103057.53;4997564;28;20143;-59
2023/02/06 08:26:28;;;;;;;18.40;12.48;;;;;;;-0.44;93.36;103055.03;5010549;28;20050;-60
2023/02/06 08:28:57;;;;;;;15.43;11.50;;;;;;;-0.41;92.77;103062.00;4999324;28;20058;-59
2023/02/06 08:31:30;;;;;;;19.80;13.40;;;;;;;-0.43;93.06;103056.78;4997205;28;20185;-60
2023/02/06 08:33:57;;;;;;;19.63;12.38;;;;;;;-0.42;93.09;103057.66;4993154;28;20061;-59
2023/02/06 08:36:25;;;;;;;17.00;11.75;;;;;;;-0.40;93.30;103064.63;4991632;28;20050;-60
2023/02/06 08:38:52;;;;;;;18.58;12.70;;;;;;;-0.32;92.75;103054.47;4992065;28;20058;-58
2023/02/06 08:41:25;;;;;;;20.20;12.65;;;;;;;-0.29;93.61;103052.81;4995664;28;20057;-59
2023/02/06 08:43:54;;;;;;;25.25;13.90;;;;;;;-0.32;93.98;103059.63;4991673;28;20053;-60
2023/02/06 08:46:23;;;;;;;24.90;15.38;;;;;;;-0.41;95.48;103060.28;4989302;28;20061;-59
2023/02/06 08:48:57;;;;;;;23.13;15.02;;;;;;;-0.38;95.04;103059.50;4996798;28;20058;-59
2023/02/06 08:51:27;;;;;;;23.67;15.55;;;;;;;-0.36;95.31;103068.16;4998615;28;20065;-59
2023/02/06 08:54:00;;;;;;;27.75;15.35;;;;;;;-0.30;94.96;103070.91;5000620;28;20680;-57
2023/02/06 08:56:28;;;;;;;23.08;13.73;;;;;;;-0.27;94.28;103058.03;4996801;28;20062;-59
2023/02/06 08:58:58;;;;;;;27.60;15.63;;;;;;;-0.17;93.99;103062.63;4996059;28;21463;-62
2023/02/06 09:01:27;;;;;;;25.65;15.88;;;;;;;-0.22;95.58;103058.19;5012638;28;20083;-58
2023/02/06 09:03:56;;;;;;;32.40;17.35;;;;;;;-0.30;96.65;103052.81;5000879;28;20085;-60
2023/02/06 09:06:24;;;;;;;31.05;17.58;;;;;;;-0.38;97.09;103047.44;5001834;28;20136;-59
2023/02/06 09:08:52;;;;;;;33.25;18.42;;;;;;;-0.35;97.01;103049.22;4997545;28;20062;-59
2023/02/06 09:11:20;;;;;;;29.80;16.13;;;;;;;-0.28;96.43;103056.28;4999321;28;20050;-59
2023/02/06 09:13:48;;;;;;;31.40;16.35;;;;;;;-0.25;96.59;103058.97;4999351;28;20073;-57
2023/02/06 09:16:17;;;;;;;34.17;16.92;;;;;;;-0.18;96.17;103063.47;5001404;28;20081;-58
2023/02/06 09:18:45;;;;;;;29.33;18.38;;;;;;;-0.21;97.10;103058.22;4995304;28;20133;-60
2023/02/06 09:21:15;;;;;;;36.70;17.27;;;;;;;-0.22;97.01;103069.41;4999535;28;20061;-58
2023/02/06 09:23:48;;;;;;;33.38;17.52;;;;;;;-0.23;96.63;103077.09;4998745;28;20053;-58
2023/02/06 09:26:19;;;;;;;36.63;18.00;;;;;;;-0.19;96.61;103091.88;4995838;28;20510;-59
2023/02/06 09:28:46;;;;;;;27.30;16.10;;;;;;;-0.14;96.06;103091.16;4995872;28;20135;-59
2023/02/06 09:31:14;;;;;;;37.22;18.23;;;;;;;-0.06;95.71;103092.22;4996019;28;20692;-57
2023/02/06 09:33:41;;;;;;;29.10;16.48;;;;;;;-0.02;95.40;103099.22;4997377;28;20068;-59
2023/02/06 09:36:11;;;;;;;30.73;18.35;;;;;;;0.01;95.48;103110.53;4992454;28;20073;-59
2023/02/06 09:38:44;;;;;;;35.35;18.48;;;;;;;0.05;95.19;103115.81;4998657;28;20068;-58
2023/02/06 09:41:30;;;;;;;32.15;16.65;;;;;;;0.01;95.04;103106.22;4994110;28;20052;-60
2023/02/06 09:44:03;;;;;;;34.33;17.42;;;;;;;0.06;94.66;103106.31;4995645;28;20643;-60
2023/02/06 09:46:34;;;;;;;37.88;19.05;;;;;;;0.03;95.19;103111.41;4992041;28;20414;-57
2023/02/06 09:49:12;;;;;;;35.95;18.50;;;;;;;0.02;95.59;103123.50;4993856;28;20548;-60
2023/02/06 09:52:11;;;;;;;37.38;17.67;;;;;;;0.11;95.16;103120.25;5009930;28;20069;-59
2023/02/06 09:54:57;;;;;;;37.83;17.80;;;;;;;0.16;94.66;103121.25;4988852;28;20049;-60
2023/02/06 09:57:30;;;;;;;;;;;;;;;0.20;94.21;103130.84;4993079;28;20140;-57
2023/02/06 10:00:00;;;;;;;36.25;18.00;;;;;;;0.20;93.65;103128.25;4994185;28;19929;-58
2023/02/06 10:02:49;;;;;;;28.25;16.55;;;;;;;0.21;93.89;103127.41;4996162;28;20072;-59
2023/02/06 10:05:18;;;;;;;30.38;17.63;;;;;;;0.28;93.52;103129.31;4997903;28;20061;-58
2023/02/06 10:07:58;;;;;;;32.50;17.13;;;;;;;0.25;94.22;103134.41;4998331;28;20136;-60
2023/02/06 10:10:28;;;;;;;31.10;17.98;;;;;;;0.24;93.55;103141.31;4995922;28;20153;-59
2023/02/06 10:13:03;;;;;;;34.15;17.65;;;;;;;0.29;93.71;103144.00;4996186;28;20342;-59
2023/02/06 10:15:41;;;;;;;34.90;17.33;;;;;;;0.26;93.77;103128.38;4979058;28;20050;-57
2023/02/06 10:18:17;;;;;;;36.45;16.80;;;;;;;0.27;93.83;103130.16;4996437;28;20142;-59
2023/02/06 10:20:49;;;;;;;31.90;17.10;;;;;;;0.32;94.01;103136.31;4993524;28;20065;-58
2023/02/06 10:23:31;;;;;;;33.28;16.70;;;;;;;0.36;94.04;103132.06;4998418;28;20058;-57
2023/02/06 10:26:11;;;;;;;31.90;17.38;;;;;;;0.43;94.03;103140.03;4999156;28;20052;-59
2023/02/06 10:28:39;;;;;;;29.85;17.55;;;;;;;0.42;94.01;103133.09;4996614;28;20067;-59
2023/02/06 10:31:24;;;;;;;29.95;17.30;;;;;;;0.40;94.32;103123.53;4992347;28;20395;-60
2023/02/06 10:33:58;;;;;;;26.17;15.45;;;;;;;0.37;93.94;103124.34;4996288;28;20176;-59
2023/02/06 10:36:35;;;;;;;26.20;15.98;;;;;;;0.45;93.37;103130.59;4997377;28;20053;-57
2023/02/06 10:39:33;;;;;;;28.25;16.27;;;;;;;0.48;93.32;103122.88;4996237;28;20061;-60
2023/02/06 10:42:24;;;;;;;28.02;15.45;;;;;;;0.46;93.00;103126.28;4995056;28;20406;-58
2023/02/06 10:45:19;;;;;;;27.23;15.45;;;;;;;0.40;93.96;103118.34;5008958;28;20064;-58
2023/02/06 10:48:09;;;;;;;23.00;14.77;;;;;;;0.43;93.99;103116.69;4997911;28;20152;-58
2023/02/06 10:50:42;;;;;;;26.05;14.90;;;;;;;0.41;93.93;103110.63;4999203;28;20517;-57
2023/02/06 10:53:28;;;;;;;25.02;15.73;;;;;;;0.37;94.28;103110.53;4998852;28;20484;-59
2023/02/06 10:56:00;;;;;;;29.10;16.27;;;;;;;0.38;94.13;103107.06;4993748;28;20104;-58
2023/02/06 10:59:00;;;;;;;24.92;14.77;;;;;;;0.43;94.32;103127.06;4997272;28;20208;-60
2023/02/06 11:01:33;;;;;;;29.40;16.90;;;;;;;0.52;94.16;103125.53;4997490;28;20141;-58
2023/02/06 11:04:10;;;;;;;31.23;17.25;;;;;;;0.49;93.97;103118.53;5013095;28;20141;-58
2023/02/06 11:06:38;;;;;;;33.58;18.33;;;;;;;0.36;94.93;103119.09;4999864;28;20089;-60
2023/02/06 11:09:06;;;;;;;32.35;17.45;;;;;;;0.27;95.16;103124.97;5006641;28;20081;-60
2023/02/06 11:11:39;;;;;;;31.80;17.27;;;;;;;0.22;95.34;103136.91;5009653;28;20129;-61
2023/02/06 11:14:15;;;;;;;26.15;16.00;;;;;;;0.30;95.39;103140.56;4998588;28;20113;-60
2023/02/06 11:16:43;;;;;;;30.65;16.13;;;;;;;0.39;95.16;103127.84;5016391;28;20383;-60
2023/02/06 11:19:24;;;;;;;34.50;18.50;;;;;;;0.48;94.55;103129.75;5000236;28;20065;-60
2023/02/06 11:22:03;;;;;;;32.42;16.60;;;;;;;0.42;94.72;103138.28;5000638;28;20066;-59
2023/02/06 11:24:30;;;;;;;31.48;17.10;;;;;;;0.39;94.72;103135.59;5001777;28;20140;-58
2023/02/06 11:27:19;;;;;;;31.98;17.23;;;;;;;0.44;94.68;103123.63;5002087;28;20132;-59
2023/02/06 11:29:47;;;;;;;36.60;18.40;;;;;;;0.38;94.87;103130.41;4999199;28;20125;-60
2023/02/06 11:32:32;;;;;;;32.67;17.85;;;;;;;0.39;94.98;103125.25;5001724;28;20375;-58